Alamosa, CO

12:12 PM MDT on August 30, 2014 (GMT -0600)
NE of Alamosa | Change Station
CLOSE
Current Station
Personal Weather Station
Location: Alamosa, CO
Elevation: 7556 ft
Nearby Weather Stations

Elev 7556 ft 37.52 °N, 105.85 °W | Updated 10 minutes ago

Clear
Clear
68.0 °F
Feels Like 68.0 °F
N
3.0
Wind Variable Wind from South
Gusts 8.0 mph

Today
High -- | Low -- °F
--% Chance of Precip.
Yesterday
High -- | Low -- °F
Precip. -- in
6:32 AM 7:35 PM
Waxing Crescent, 23% visible
Pressure 30.00 in
Visibility 10.0 miles
Clouds Clear
Dew Point 46 °F
Humidity 45%
Rainfall 0.00 in
Snow Depth Not available.
UV 10 out of 12
Pollen 10.50 out of 12
Air Quality Not available.
Flu Activity Not available.
METAR KALS 301752Z AUTO 00000KT 10SM CLR 21/05 A3027 RMK AO2 SLP158 T02110050 10211 20050 58015 $

More Conditions Fewer Conditions

Pressure 30.00 in
Visibility 10.0 miles
Clouds Clear
Dew Point 46 °F
Humidity 45%
Rainfall 0.00 in
Snow Depth Not available.
UV 10 out of 12
Pollen 10.50 out of 12
Air Quality Not available.
Flu Activity Not available.
METAR KALS 301752Z AUTO 00000KT 10SM CLR 21/05 A3027 RMK AO2 SLP158 T02110050 10211 20050 58015 $

More Conditions Fewer Conditions

10-Day Weather Forecast

Almanac

Astronomy

Aug. 30, 2014 Rise Set
Actual Time 6:32 AM MDT 7:35 PM MDT
Civil Twilight 6:05 AM MDT 8:01 PM MDT
Nautical Twilight 5:33 AM MDT 8:33 PM MDT
Astronomical Twilight 5:00 AM MDT 9:06 PM MDT
Moon 11:15 AM MDT 10:18 PM MDT
Length of Visible Light 13h 56m
Length of Day
13h 03m
Tomorrow will be 2m 17s shorter.
Waxing Crescent, 23% of the Moon is Illuminated
Today
Waxing Crescent
Sep 2
First Quarter
Sep 8
Full
Sep 15
Last Quarter
Sep 24
New

Today's Extremes

State Highs State Lows

Community

WunderPhotos

Upload Photos

1,748,583 photos uploaded!

WunderBlogs® & News

Nearby

Snow Depth

Station Depth Elevation
Ute Creek 0 in 10650 ft
Medano Pass 0 in 9620 ft
Whiskey Creek 0 in 10220 ft
Wolf Creek Summit 0 in 11000 ft
Upper San Juan 0 in 10130 ft

Earthquake Activity

City Distance Mag. Time & Date
No recent earthquake activity has been reported nearby.
Minimum magnitude displayed is 2.5.

Coastal Water Temperatures

Place Temperature
No Stations Reporting

Nearby Weather Stations